Accedi per prenotare

Caricamento...

Situazione Metar e Taf aeroporto Pisa - Effemeridi Aeroporto Lucca

[Source: ADDS]
METAR
LIRP 080815Z 12003KT CAVOK 14/03 Q1025 NOSIG =
LIRP 080500Z 0806/0906 11007KT CAVOK TEMPO 0813/0817 30010KT
TAF
LIRP 080500Z 0806/0906 11007KT CAVOK TEMPO 0813/0817 30010KT =
SR / SS: 04:48 / 17:54 UTC (Effemeridi LIQL 2020-04-08)